Time;durP1;ratioP1;P1;durP2;ratioP2;P2;SDS_P1;SDS_P2;PMS_P1;PMS_P2;Temp;Humidity;BMP_temperature;BMP_pressure;BME280_temperature;BME280_humidity;BME280_pressure;Samples;Min_cycle;Max_cycle;Signal;HPM_P1;HPM_P2
2022/02/28 00:01:10;;;;;;;7.43;4.10;;;;;;;-146.41;100.00;57768.22;4980205;28;20082;-67
2022/02/28 00:03:38;;;;;;;10.55;4.20;;;;;;;-146.41;100.00;57768.22;4964548;28;20077;-67
2022/02/28 00:06:06;;;;;;;7.28;3.85;;;;;;;-146.41;100.00;57768.22;4977034;28;20137;-67
2022/02/28 00:08:33;;;;;;;7.68;4.03;;;;;;;-146.41;100.00;57768.22;4978422;28;20463;-67
2022/02/28 00:11:00;;;;;;;7.93;3.75;;;;;;;-146.41;100.00;57768.22;4981330;28;20142;-67
2022/02/28 00:13:29;;;;;;;7.03;4.18;;;;;;;-146.41;100.00;57768.22;4978113;28;20145;-67
2022/02/28 00:15:56;;;;;;;7.72;4.03;;;;;;;-146.41;100.00;57768.22;4962573;28;20125;-67
2022/02/28 00:18:24;;;;;;;7.38;3.97;;;;;;;-146.41;100.00;57768.22;4976602;28;20503;-67
2022/02/28 00:20:51;;;;;;;10.57;4.18;;;;;;;-146.41;100.00;57768.22;4979914;28;20081;-67
2022/02/28 00:23:19;;;;;;;8.88;3.63;;;;;;;-146.41;100.00;57768.22;4978685;28;20468;-67
2022/02/28 00:25:47;;;;;;;9.80;4.15;;;;;;;-146.41;100.00;57768.22;4961191;28;20062;-67
2022/02/28 00:28:14;;;;;;;9.55;4.43;;;;;;;-146.41;100.00;57768.22;4978054;28;20444;-67
2022/02/28 00:30:41;;;;;;;7.30;4.07;;;0.90;99.90;;;-146.41;100.00;57768.22;4971668;28;20078;-67
2022/02/28 00:33:09;;;;;;;9.52;4.00;;;0.80;99.90;;;-146.41;100.00;57768.22;4970009;28;20064;-67
2022/02/28 00:35:37;;;;;;;8.25;3.63;;;;;;;-146.41;100.00;57768.22;4982303;28;20073;-67
2022/02/28 00:38:08;;;;;;;7.75;4.30;;;;;;;-146.41;100.00;57768.22;4978418;28;20121;-67
2022/02/28 00:40:39;;;;;;;10.00;4.18;;;;;;;-146.41;100.00;57768.22;4977273;28;20507;-68
2022/02/28 00:43:07;;;;;;;8.15;4.25;;;;;;;-146.41;100.00;57768.22;4982406;28;20058;-68
2022/02/28 00:45:35;;;;;;;8.25;4.72;;;;;;;-146.41;100.00;57768.22;4978408;28;20161;-68
2022/02/28 00:48:03;;;;;;;10.50;4.30;;;;;;;-146.41;100.00;57768.22;4976103;28;20059;-68
2022/02/28 00:50:31;;;;;;;8.07;4.40;;;;;;;-146.41;100.00;57768.22;4980987;28;20499;-68
2022/02/28 00:52:58;;;;;;;7.60;3.72;;;;;;;-146.41;100.00;57768.22;4980348;28;20120;-68
2022/02/28 00:55:26;;;;;;;6.47;4.00;;;;;;;-146.41;100.00;57768.22;4976172;28;20154;-68
2022/02/28 00:57:53;;;;;;;9.25;5.05;;;;;;;-146.41;100.00;57768.22;4978852;28;20455;-68
2022/02/28 01:00:21;;;;;;;8.13;4.18;;;;;;;-146.41;100.00;57768.22;4966022;28;20080;-68
2022/02/28 01:02:49;;;;;;;7.82;4.18;;;;;;;-146.41;100.00;57768.22;4978469;28;20080;-68
2022/02/28 01:05:18;;;;;;;8.80;4.10;;;;;;;-146.41;100.00;57768.22;4977779;28;20055;-68
2022/02/28 01:07:46;;;;;;;13.02;5.18;;;;;;;-146.41;100.00;57768.22;4981115;28;20137;-68
2022/02/28 01:10:15;;;;;;;8.40;4.05;;;;;;;-146.41;100.00;57768.22;4963193;28;20084;-68
2022/02/28 01:12:46;;;;;;;10.02;4.30;;;;;;;-146.41;100.00;57768.22;4966096;28;20053;-67
2022/02/28 01:15:14;;;;;;;11.70;4.75;;;;;;;-146.41;100.00;57768.22;4979710;28;20131;-68
2022/02/28 01:17:42;;;;;;;11.05;5.03;;;;;;;-146.41;100.00;57768.22;4969689;28;20192;-68
2022/02/28 01:20:12;;;;;;;9.15;4.45;;;-0.40;99.90;;;-146.41;100.00;57768.22;4981803;28;20468;-68
2022/02/28 01:22:39;;;;;;;8.82;4.20;;;-0.30;99.90;;;-146.41;100.00;57768.22;4951021;28;20089;-68
2022/02/28 01:25:09;;;;;;;10.15;4.93;;;-0.30;99.90;;;-146.41;100.00;57768.22;4981481;28;20093;-68
2022/02/28 01:27:36;;;;;;;10.90;5.05;;;-0.40;99.90;;;-146.41;100.00;57768.22;4966015;28;20507;-68
2022/02/28 01:30:05;;;;;;;9.90;4.97;;;-0.50;99.90;;;-146.41;100.00;57768.22;4978372;28;20135;-68
2022/02/28 01:32:33;;;;;;;11.25;5.82;;;-0.40;99.90;;;-146.41;100.00;57768.22;4977499;28;20050;-67
2022/02/28 01:35:00;;;;;;;11.40;5.20;;;-0.60;99.90;;;-146.41;100.00;57768.22;4976712;28;20133;-67
2022/02/28 01:37:27;;;;;;;9.27;4.22;;;-0.30;99.90;;;-146.41;100.00;57768.22;4976786;28;20145;-68
2022/02/28 01:39:54;;;;;;;9.13;5.18;;;-0.40;99.90;;;-146.41;100.00;57768.22;4962952;28;20110;-67
2022/02/28 01:42:21;;;;;;;8.95;4.78;;;-0.70;99.90;;;-146.41;100.00;57768.22;4977816;28;20074;-68
2022/02/28 01:44:48;;;;;;;10.13;4.90;;;-0.90;99.90;;;-146.41;100.00;57768.22;4979014;28;20542;-68
2022/02/28 01:47:15;;;;;;;9.75;5.15;;;-1.00;99.90;;;-146.41;100.00;57768.22;4979653;28;20057;-67
2022/02/28 01:49:42;;;;;;;11.65;4.10;;;-1.00;99.90;;;-146.41;100.00;57768.22;4981378;28;20132;-68
2022/02/28 01:52:09;;;;;;;8.77;5.07;;;-0.90;99.90;;;-146.41;100.00;57768.22;4978278;28;20131;-67
2022/02/28 01:54:36;;;;;;;8.60;4.63;;;-0.90;99.90;;;-146.41;100.00;57768.22;4979461;28;20072;-68
2022/02/28 01:57:03;;;;;;;9.48;5.07;;;-0.90;99.90;;;-146.41;100.00;57768.22;4967224;28;20085;-67
2022/02/28 01:59:30;;;;;;;11.23;5.40;;;-1.00;99.90;;;-146.41;100.00;57768.22;4979357;28;20054;-68
2022/02/28 02:02:00;;;;;;;7.97;4.30;;;-1.00;99.90;;;-146.41;100.00;57768.22;4977576;28;20092;-67
2022/02/28 02:04:27;;;;;;;11.50;5.68;;;-1.10;99.90;;;-146.41;100.00;57768.22;4978379;28;20095;-68
2022/02/28 02:06:54;;;;;;;11.00;5.28;;;-1.10;99.90;;;-146.41;100.00;57768.22;4962623;28;20086;-68
2022/02/28 02:09:21;;;;;;;9.52;5.07;;;-1.10;99.90;;;-146.41;100.00;57768.22;4980007;28;20166;-67
2022/02/28 02:11:48;;;;;;;9.50;4.68;;;-1.10;99.90;;;-146.41;100.00;57768.22;4977863;28;20531;-68
2022/02/28 02:14:16;;;;;;;7.65;4.60;;;-1.10;99.90;;;-146.41;100.00;57768.22;4974884;28;20367;-68
2022/02/28 02:16:43;;;;;;;9.18;5.00;;;-1.10;99.90;;;-146.41;100.00;57768.22;4964216;28;20133;-67
2022/02/28 02:19:10;;;;;;;7.57;5.03;;;-1.10;99.90;;;-146.41;100.00;57768.22;4975833;28;20140;-68
2022/02/28 02:21:37;;;;;;;7.70;4.80;;;-1.30;99.90;;;-146.41;100.00;57768.22;4973332;28;20086;-68
2022/02/28 02:24:08;;;;;;;9.52;5.15;;;-1.30;99.90;;;-146.41;100.00;57768.22;4975669;28;20062;-68
2022/02/28 02:26:35;;;;;;;11.32;6.20;;;-1.30;99.90;;;-146.41;100.00;57768.22;4959171;28;20442;-69
2022/02/28 02:29:02;;;;;;;10.80;5.90;;;-1.20;99.90;;;-146.41;100.00;57768.22;4965054;28;20077;-68
2022/02/28 02:31:29;;;;;;;12.77;5.63;;;-1.20;99.90;;;-146.41;100.00;57768.22;4973687;28;20105;-69
2022/02/28 02:33:57;;;;;;;14.60;4.90;;;-1.20;99.90;;;-146.41;100.00;57768.22;4962951;28;20479;-68
2022/02/28 02:36:24;;;;;;;11.00;5.70;;;-1.10;99.90;;;-146.41;100.00;57768.22;4975210;28;20108;-68
2022/02/28 02:38:52;;;;;;;9.77;5.50;;;-1.20;99.90;;;-146.41;100.00;57768.22;4976402;28;20486;-68
2022/02/28 02:41:20;;;;;;;10.57;5.97;;;-1.10;99.90;;;-146.41;100.00;57768.22;4975275;28;20086;-68
2022/02/28 02:43:48;;;;;;;11.50;6.10;;;-1.20;99.90;;;-146.41;100.00;57768.22;4978485;28;20141;-68
2022/02/28 02:46:16;;;;;;;9.15;5.63;;;-1.20;99.90;;;-146.41;100.00;57768.22;4960661;28;20415;-68
2022/02/28 02:48:44;;;;;;;10.65;5.82;;;-1.20;99.90;;;-146.41;100.00;57768.22;4976038;28;20262;-68
2022/02/28 02:51:12;;;;;;;12.50;6.05;;;-1.20;99.90;;;-146.41;100.00;57768.22;4976958;28;20097;-68
2022/02/28 02:53:40;;;;;;;10.10;5.35;;;-1.20;99.90;;;-146.41;100.00;57768.22;4979039;28;20511;-68
2022/02/28 02:56:07;;;;;;;9.82;5.40;;;-1.10;99.90;;;-146.41;100.00;57768.22;4975685;28;20050;-68
2022/02/28 02:58:34;;;;;;;9.75;5.07;;;-1.20;99.90;;;-146.41;100.00;57768.22;4974335;28;20539;-68
2022/02/28 03:01:01;;;;;;;13.13;5.78;;;-1.20;99.90;;;-146.41;100.00;57768.22;4961475;28;20055;-68
2022/02/28 03:03:28;;;;;;;11.32;5.88;;;-1.20;99.90;;;-146.41;100.00;57768.22;4976979;28;20269;-68
2022/02/28 03:05:55;;;;;;;10.65;5.55;;;-1.10;99.90;;;-146.41;100.00;57768.22;4976594;28;20438;-68
2022/02/28 03:08:22;;;;;;;11.70;5.72;;;-1.00;99.90;;;-146.41;100.00;57768.22;4975131;28;20229;-68
2022/02/28 03:10:49;;;;;;;8.88;4.90;;;-1.00;99.90;;;-146.41;100.00;57768.22;4972919;28;20094;-68
2022/02/28 03:13:16;;;;;;;10.43;5.72;;;-1.00;99.90;;;-146.41;100.00;57768.22;4973788;28;20105;-69
2022/02/28 03:15:43;;;;;;;11.07;5.70;;;-1.10;99.90;;;-146.41;100.00;57768.22;4978616;28;20185;-68
2022/02/28 03:18:10;;;;;;;9.52;6.15;;;-1.10;99.90;;;-146.41;100.00;57768.22;4971157;28;20081;-68
2022/02/28 03:20:37;;;;;;;7.35;4.95;;;-1.10;99.90;;;-146.41;100.00;57768.22;4978928;28;20074;-68
2022/02/28 03:23:05;;;;;;;10.25;5.22;;;-1.00;99.90;;;-146.41;100.00;57768.22;4977287;28;20050;-69
2022/02/28 03:25:32;;;;;;;9.88;5.38;;;-1.00;99.90;;;-146.41;100.00;57768.22;4976772;28;20086;-68
2022/02/28 03:27:59;;;;;;;12.10;5.80;;;-1.00;99.90;;;-146.41;100.00;57768.22;4974678;28;20336;-68
2022/02/28 03:30:27;;;;;;;8.95;5.07;;;-1.00;99.90;;;-146.41;100.00;57768.22;4978445;28;20085;-68
2022/02/28 03:32:55;;;;;;;10.25;5.32;;;-1.10;99.90;;;-146.41;100.00;57768.22;4978276;28;20530;-68
2022/02/28 03:35:22;;;;;;;10.48;5.07;;;-1.10;99.90;;;-146.41;100.00;57768.22;4980158;28;20051;-68
2022/02/28 03:37:49;;;;;;;9.55;4.57;;;-1.00;99.90;;;-146.41;100.00;57768.22;4980857;28;20078;-70
2022/02/28 03:40:16;;;;;;;10.05;5.63;;;-1.00;99.90;;;-146.41;100.00;57768.22;4978937;28;20328;-66
2022/02/28 03:42:44;;;;;;;8.88;5.55;;;-1.10;99.90;;;-146.41;100.00;57768.22;4960626;28;20086;-68
2022/02/28 03:45:11;;;;;;;12.65;5.68;;;-1.10;99.90;;;-146.41;100.00;57768.22;4980980;28;20046;-69
2022/02/28 03:47:38;;;;;;;8.77;5.00;;;-1.10;99.90;;;-146.41;100.00;57768.22;4965164;28;20638;-68
2022/02/28 03:50:06;;;;;;;11.95;6.22;;;-1.10;99.90;;;-146.41;100.00;57768.22;4964404;28;20557;-68
2022/02/28 03:52:33;;;;;;;11.50;5.78;;;-1.10;99.90;;;-146.41;100.00;57768.22;4979345;28;20793;-68
2022/02/28 03:55:02;;;;;;;12.18;6.22;;;-1.10;99.90;;;-146.41;100.00;57768.22;4980671;28;20078;-69
2022/02/28 03:57:29;;;;;;;10.45;5.82;;;-1.20;99.90;;;-146.41;100.00;57768.22;4976480;28;20062;-69
2022/02/28 03:59:56;;;;;;;11.25;6.13;;;-1.20;99.90;;;-146.41;100.00;57768.22;4978949;28;20147;-68
2022/02/28 04:02:23;;;;;;;9.25;6.10;;;-1.20;99.90;;;-146.41;100.00;57768.22;4974757;28;20084;-68
2022/02/28 04:04:50;;;;;;;10.90;5.65;;;-1.20;99.90;;;-146.41;100.00;57768.22;4963853;28;20049;-68
2022/02/28 04:07:17;;;;;;;10.38;5.60;;;-1.30;99.90;;;-146.41;100.00;57768.22;4976328;28;20098;-68
2022/02/28 04:09:44;;;;;;;12.55;6.22;;;-1.40;99.90;;;-146.41;100.00;57768.22;4981960;28;20486;-67
2022/02/28 04:12:12;;;;;;;12.10;5.90;;;-1.40;99.90;;;-146.41;100.00;57768.22;4979263;28;20104;-68
2022/02/28 04:14:40;;;;;;;14.85;5.93;;;-1.40;99.90;;;-146.41;100.00;57768.22;4980673;28;20495;-68
2022/02/28 04:17:08;;;;;;;12.75;6.30;;;-1.40;99.90;;;-146.41;100.00;57768.22;4976917;28;20050;-67
2022/02/28 04:19:35;;;;;;;11.80;6.30;;;-1.50;99.90;;;-146.41;100.00;57768.22;4963973;28;20065;-68
2022/02/28 04:22:02;;;;;;;11.50;6.43;;;-1.70;99.90;;;-146.41;100.00;57768.22;4977933;28;20127;-68
2022/02/28 04:24:29;;;;;;;10.82;5.88;;;-1.70;99.90;;;-146.41;100.00;57768.22;4980623;28;20520;-68
2022/02/28 04:26:57;;;;;;;10.63;5.60;;;-1.70;99.90;;;-146.41;100.00;57768.22;4963735;28;20206;-69
2022/02/28 04:29:25;;;;;;;9.77;5.60;;;-1.70;99.90;;;-146.41;100.00;57768.22;4960666;28;20679;-68
2022/02/28 04:31:52;;;;;;;13.82;7.07;;;-1.80;99.90;;;-146.41;100.00;57768.22;4980524;28;20463;-68
2022/02/28 04:34:24;;;;;;;11.90;6.45;;;-1.80;99.90;;;-146.41;100.00;57768.22;4979141;28;20050;-68
2022/02/28 04:36:51;;;;;;;13.20;6.63;;;-2.00;99.90;;;-146.41;100.00;57768.22;4980201;28;20114;-67
2022/02/28 04:39:18;;;;;;;13.05;7.10;;;-2.10;99.90;;;-146.41;100.00;57768.22;4962085;28;20081;-67
2022/02/28 04:41:47;;;;;;;10.93;6.55;;;-2.10;99.90;;;-146.41;100.00;57768.22;4975443;28;20076;-67
2022/02/28 04:44:15;;;;;;;15.45;7.28;;;-2.10;99.90;;;-146.41;100.00;57768.22;4957846;28;20070;-68
2022/02/28 04:46:42;;;;;;;13.20;7.05;;;-2.00;99.90;;;-146.41;100.00;57768.22;4977382;28;20141;-68
2022/02/28 04:49:09;;;;;;;11.20;6.55;;;-1.90;99.90;;;-146.41;100.00;57768.22;4982998;28;20207;-68
2022/02/28 04:51:36;;;;;;;9.90;5.28;;;-2.00;99.90;;;-146.41;100.00;57768.22;4977824;28;20090;-68
2022/02/28 04:54:03;;;;;;;11.57;6.03;;;-2.10;99.90;;;-146.41;100.00;57768.22;4979489;28;20088;-70
2022/02/28 04:56:30;;;;;;;11.00;6.15;;;-2.20;99.90;;;-146.41;100.00;57768.22;4981159;28;20104;-67
2022/02/28 04:58:57;;;;;;;12.73;6.32;;;-2.20;99.90;;;-146.41;100.00;57768.22;4976593;28;20082;-68
2022/02/28 05:01:24;;;;;;;11.80;7.15;;;-2.20;99.90;;;-146.41;100.00;57768.22;4981397;28;20436;-69
2022/02/28 05:03:56;;;;;;;11.18;6.68;;;;;;;-146.41;100.00;57768.22;4975919;28;20498;-67
2022/02/28 05:06:23;;;;;;;14.00;7.25;;;-2.20;99.90;;;-146.41;100.00;57768.22;4975644;28;20100;-67
2022/02/28 05:08:50;;;;;;;11.77;7.57;;;-2.10;99.90;;;-146.41;100.00;57768.22;4977499;28;20141;-68
2022/02/28 05:11:18;;;;;;;11.85;6.65;;;-2.10;99.90;;;-146.41;100.00;57768.22;4977968;28;20208;-67
2022/02/28 05:13:45;;;;;;;11.93;7.13;;;-2.10;99.90;;;-146.41;100.00;57768.22;4963263;28;20548;-67
2022/02/28 05:16:12;;;;;;;10.38;7.25;;;-2.10;99.90;;;-146.41;100.00;57768.22;4949169;28;20086;-67
2022/02/28 05:18:39;;;;;;;12.27;8.75;;;-2.20;99.90;;;-146.41;100.00;57768.22;4978266;28;20645;-67
2022/02/28 05:21:06;;;;;;;15.13;7.97;;;-2.30;99.90;;;-146.41;100.00;57768.22;4980025;28;20078;-67
2022/02/28 05:23:33;;;;;;;15.98;8.23;;;-2.30;99.90;;;-146.41;100.00;57768.22;4951911;28;20050;-67
2022/02/28 05:26:01;;;;;;;13.23;7.88;;;-2.20;99.90;;;-146.41;100.00;57768.22;4979549;28;20093;-68
2022/02/28 05:28:38;;;;;;;12.07;7.82;;;-2.00;99.90;;;-146.41;100.00;57768.22;4981421;28;20053;-67
2022/02/28 05:31:05;;;;;;;17.35;9.70;;;-2.00;99.90;;;-146.41;100.00;57768.22;4980047;28;20080;-67
2022/02/28 05:33:32;;;;;;;14.20;8.77;;;-2.10;99.90;;;-146.41;100.00;57768.22;4978409;28;20100;-67
2022/02/28 05:35:59;;;;;;;18.85;12.68;;;-2.20;99.90;;;-146.41;100.00;57768.22;4976622;28;20097;-67
2022/02/28 05:38:26;;;;;;;17.00;10.18;;;-2.20;99.90;;;-146.41;100.00;57768.22;4979094;28;20154;-67
2022/02/28 05:40:53;;;;;;;15.75;10.10;;;-2.30;99.90;;;-146.41;100.00;57768.22;4980766;28;20054;-67
2022/02/28 05:43:21;;;;;;;14.20;8.02;;;;;;;-146.41;100.00;57768.22;4977700;28;20154;-67
2022/02/28 05:45:48;;;;;;;23.75;14.75;;;;;;;-146.41;100.00;57768.22;4973057;28;20152;-67
2022/02/28 05:48:16;;;;;;;23.77;14.88;;;;;;;-146.41;100.00;57768.22;4975815;28;20129;-67
2022/02/28 05:50:43;;;;;;;32.75;21.77;;;;;;;-146.41;100.00;57768.22;4978628;28;20085;-67
2022/02/28 05:53:10;;;;;;;36.60;24.50;;;;;;;-146.41;100.00;57768.22;4976259;28;20085;-67
2022/02/28 05:55:38;;;;;;;20.95;14.25;;;;;;;-146.41;100.00;57768.22;4975695;28;20501;-67
2022/02/28 05:58:06;;;;;;;12.10;9.05;;;;;;;-146.41;100.00;57768.22;4965582;28;20114;-67
2022/02/28 06:00:34;;;;;;;13.90;7.30;;;;;;;-146.41;100.00;57768.22;4958695;28;20145;-67
2022/02/28 06:03:01;;;;;;;12.60;7.30;;;;;;;-146.41;100.00;57768.22;4975754;28;20230;-67
2022/02/28 06:05:28;;;;;;;14.80;8.45;;;;;;;-146.41;100.00;57768.22;4978612;28;20080;-67
2022/02/28 06:07:56;;;;;;;14.93;8.98;;;;;;;-146.41;100.00;57768.22;4978962;28;20551;-67
2022/02/28 06:10:23;;;;;;;14.15;8.55;;;;;;;-146.41;100.00;57768.22;4978259;28;20134;-67
2022/02/28 06:12:50;;;;;;;14.55;8.38;;;;;;;-146.41;100.00;57768.22;4975897;28;20081;-67
2022/02/28 06:15:30;;;;;;;12.48;7.18;;;;;;;-146.41;100.00;57768.22;4976725;28;20046;-67
2022/02/28 06:18:01;;;;;;;13.15;7.90;;;;;;;-146.41;100.00;57768.22;4965146;28;20110;-67
2022/02/28 06:20:29;;;;;;;14.55;8.18;;;;;;;-146.41;100.00;57768.22;4975392;28;20050;-67
2022/02/28 06:22:56;;;;;;;14.88;7.88;;;;;;;-146.41;100.00;57768.22;4960656;28;20116;-67
2022/02/28 06:25:23;;;;;;;14.23;8.35;;;;;;;-146.41;100.00;57768.22;4974362;28;20115;-67
2022/02/28 06:27:54;;;;;;;13.35;8.73;;;;;;;-146.41;100.00;57768.22;4975914;28;20137;-67
2022/02/28 06:30:22;;;;;;;15.32;10.45;;;;;;;-146.41;100.00;57768.22;4976844;28;20062;-66
2022/02/28 06:32:50;;;;;;;17.80;11.95;;;;;;;-146.41;100.00;57768.22;4972651;28;20054;-67
2022/02/28 06:35:17;;;;;;;16.15;9.75;;;;;;;-146.41;100.00;57768.22;4972241;28;20129;-67
2022/02/28 06:37:44;;;;;;;15.35;10.18;;;;;;;-146.41;100.00;57768.22;4964021;28;20141;-67
2022/02/28 06:40:12;;;;;;;13.48;9.95;;;;;;;-146.41;100.00;57768.22;4975888;28;20197;-67
2022/02/28 06:42:40;;;;;;;15.73;9.68;;;;;;;-146.41;100.00;57768.22;4967637;28;20191;-67
2022/02/28 06:45:08;;;;;;;13.45;8.48;;;;;;;-146.41;100.00;57768.22;4975989;28;20134;-67
2022/02/28 06:47:35;;;;;;;14.23;8.82;;;;;;;-146.41;100.00;57768.22;4976197;28;20050;-67
2022/02/28 06:50:03;;;;;;;11.02;7.78;;;;;;;-146.41;100.00;57768.22;4974829;28;20133;-67
2022/02/28 06:52:31;;;;;;;14.57;8.40;;;;;;;-146.41;100.00;57768.22;4977268;28;20124;-67
2022/02/28 06:54:59;;;;;;;15.95;8.80;;;;;;;-146.41;100.00;57768.22;4979194;28;20084;-67
2022/02/28 06:57:26;;;;;;;15.15;8.35;;;;;;;-146.41;100.00;57768.22;4974441;28;20137;-67
2022/02/28 06:59:54;;;;;;;15.68;8.95;;;;;;;-146.41;100.00;57768.22;4975775;28;20166;-68
2022/02/28 07:02:22;;;;;;;14.80;8.88;;;;;;;-146.41;100.00;57768.22;4979978;28;20141;-67
2022/02/28 07:04:49;;;;;;;13.73;9.15;;;;;;;-146.41;100.00;57768.22;4977275;28;20457;-67
2022/02/28 07:07:17;;;;;;;15.77;9.13;;;;;;;-146.41;100.00;57768.22;4978126;28;20062;-68
2022/02/28 07:09:46;;;;;;;15.93;9.43;;;;;;;-146.41;100.00;57768.22;4960179;28;20145;-67
2022/02/28 07:12:14;;;;;;;19.30;9.70;;;;;;;-146.41;100.00;57768.22;4959966;28;20135;-67
2022/02/28 07:14:43;;;;;;;19.17;9.25;;;;;;;-146.41;100.00;57768.22;4959092;28;20068;-67
2022/02/28 07:17:11;;;;;;;14.52;9.15;;;;;;;-146.41;100.00;57768.22;4977085;28;20054;-67
2022/02/28 07:19:38;;;;;;;16.10;9.63;;;;;;;-146.41;100.00;57768.22;4975579;28;20530;-67
2022/02/28 07:22:05;;;;;;;18.55;9.25;;;;;;;-146.41;100.00;57768.22;4976625;28;20120;-67
2022/02/28 07:24:33;;;;;;;16.20;9.43;;;;;;;-146.41;100.00;57768.22;4971882;28;20553;-67
2022/02/28 07:27:01;;;;;;;14.07;8.80;;;;;;;-146.41;100.00;57768.22;4973193;28;20073;-66
2022/02/28 07:29:28;;;;;;;17.50;9.88;;;-1.40;99.90;;;-146.41;100.00;57768.22;4974231;28;20582;-67
2022/02/28 07:31:56;;;;;;;17.65;9.15;;;-1.40;99.90;;;-146.41;100.00;57768.22;4973751;28;20060;-66
2022/02/28 07:34:23;;;;;;;14.85;8.85;;;-1.30;99.90;;;-146.41;100.00;57768.22;4972964;28;20144;-68
2022/02/28 07:36:50;;;;;;;17.00;9.35;;;-1.30;99.90;;;-146.41;100.00;57768.22;4958115;28;20141;-67
2022/02/28 07:39:18;;;;;;;18.70;9.48;;;-1.20;99.90;;;-146.41;100.00;57768.22;4973031;28;20054;-66
2022/02/28 07:41:45;;;;;;;17.23;9.73;;;-1.20;99.90;;;-146.41;100.00;57768.22;4973266;28;20181;-67
2022/02/28 07:44:13;;;;;;;19.33;9.38;;;-1.10;99.90;;;-146.41;100.00;57768.22;4976620;28;20053;-67
2022/02/28 07:46:42;;;;;;;15.50;9.38;;;-1.00;99.90;;;-146.41;100.00;57768.22;4977224;28;20476;-67
2022/02/28 07:49:10;;;;;;;15.05;9.43;;;-0.80;99.90;;;-146.41;100.00;57768.22;4974895;28;20093;-67
2022/02/28 07:51:36;;;;;;;18.75;9.07;;;-0.70;99.90;;;-146.41;100.00;57768.22;4958686;28;20180;-67
2022/02/28 07:54:03;;;;;;;15.70;9.05;;;-0.60;99.90;;;-146.41;100.00;57768.22;4959442;28;20074;-67
2022/02/28 07:56:30;;;;;;;13.80;8.68;;;-0.30;99.90;;;-146.41;100.00;57768.22;4973187;28;20138;-67
2022/02/28 07:58:58;;;;;;;13.15;8.25;;;0.20;99.90;;;-146.41;100.00;57768.22;4972600;28;20483;-67
2022/02/28 08:01:25;;;;;;;16.27;8.55;;;0.90;99.90;;;-146.41;100.00;57768.22;4973316;28;20616;-67
2022/02/28 08:03:52;;;;;;;13.73;8.20;;;1.60;99.90;;;-146.41;100.00;57768.22;4973564;28;20050;-66
2022/02/28 08:06:19;;;;;;;12.23;7.30;;;2.20;99.90;;;-146.41;100.00;57768.22;4975540;28;20164;-67
2022/02/28 08:08:46;;;;;;;13.50;7.78;;;;;;;-146.41;100.00;57768.22;4975062;28;20054;-67
2022/02/28 08:11:14;;;;;;;14.43;7.85;;;;;;;-146.41;100.00;57768.22;4955818;28;20062;-67
2022/02/28 08:13:42;;;;;;;15.38;8.38;;;3.50;99.90;;;-146.41;100.00;57768.22;4962984;28;20480;-69
2022/02/28 08:16:09;;;;;;;11.50;7.65;;;;;;;-146.41;100.00;57768.22;4974943;28;20078;-67
2022/02/28 08:18:37;;;;;;;14.27;8.25;;;4.10;99.90;;;-146.41;100.00;57768.22;4953038;28;20495;-67
2022/02/28 08:21:04;;;;;;;12.05;7.53;;;4.50;99.90;;;-146.41;100.00;57768.22;4979785;28;20050;-67
2022/02/28 08:23:31;;;;;;;11.40;7.30;;;4.80;99.90;;;-146.41;100.00;57768.22;4974597;28;20085;-67
2022/02/28 08:25:58;;;;;;;14.55;7.75;;;5.00;99.90;;;-146.41;100.00;57768.22;4960063;28;20848;-67
2022/02/28 08:28:25;;;;;;;12.15;7.45;;;5.00;99.90;;;-146.41;100.00;57768.22;4980770;28;20539;-68
2022/02/28 08:30:53;;;;;;;17.48;8.50;;;5.20;99.90;;;-146.41;100.00;57768.22;4963699;28;20074;-67
2022/02/28 08:33:20;;;;;;;12.77;7.80;;;5.20;99.90;;;-146.41;100.00;57768.22;4966914;28;20169;-67
2022/02/28 08:35:47;;;;;;;11.63;7.38;;;5.50;99.90;;;-146.41;100.00;57768.22;4983870;28;20520;-68
2022/02/28 08:38:17;;;;;;;14.20;7.68;;;5.50;99.90;;;-146.41;100.00;57768.22;4978631;28;20078;-67
2022/02/28 08:40:45;;;;;;;12.35;8.23;;;5.70;99.90;;;-146.41;100.00;57768.22;4962959;28;20519;-68
2022/02/28 08:43:13;;;;;;;11.52;7.43;;;;;;;-146.41;100.00;57768.22;4978939;28;20153;-68
2022/02/28 08:45:41;;;;;;;11.20;7.25;;;6.30;99.10;;;-146.41;100.00;57768.22;4964168;28;20419;-67
2022/02/28 08:48:08;;;;;;;14.40;7.47;;;6.60;97.60;;;-146.41;100.00;57768.22;4978327;28;20050;-68
2022/02/28 08:50:35;;;;;;;9.98;5.80;;;6.50;96.90;;;-146.41;100.00;57768.22;4977210;28;20074;-67
2022/02/28 08:53:03;;;;;;;12.80;6.75;;;7.00;97.60;;;-146.41;100.00;57768.22;4965304;28;20046;-67
2022/02/28 08:55:30;;;;;;;10.18;6.40;;;7.20;95.90;;;-146.41;100.00;57768.22;4976794;28;20085;-67
2022/02/28 08:57:57;;;;;;;9.48;6.88;;;7.60;96.20;;;-146.41;100.00;57768.22;4977568;28;20111;-67
2022/02/28 09:00:24;;;;;;;12.95;6.57;;;7.80;95.30;;;-146.41;100.00;57768.22;4980198;28;20748;-67
2022/02/28 09:02:51;;;;;;;11.65;6.57;;;7.70;94.00;;;-146.41;100.00;57768.22;4961134;28;20073;-66
2022/02/28 09:05:18;;;;;;;15.25;7.28;;;7.60;95.20;;;-146.41;100.00;57768.22;4976043;28;20546;-67
2022/02/28 09:07:46;;;;;;;12.20;6.85;;;7.10;94.70;;;-146.41;100.00;57768.22;4963642;28;20134;-67
2022/02/28 09:10:13;;;;;;;11.48;6.63;;;6.70;95.60;;;-146.41;100.00;57768.22;4980674;28;20139;-67
2022/02/28 09:12:41;;;;;;;12.27;7.00;;;6.40;96.60;;;-146.41;100.00;57768.22;4946924;28;20367;-66
2022/02/28 09:15:09;;;;;;;11.10;5.97;;;6.30;97.50;;;-146.41;100.00;57768.22;4975140;28;20058;-70
2022/02/28 09:17:38;;;;;;;12.48;7.60;;;6.00;97.70;;;-146.41;100.00;57768.22;4978425;28;20490;-66
2022/02/28 09:20:07;;;;;;;11.68;6.65;;;5.70;98.60;;;-146.41;100.00;57768.22;4976648;28;20050;-66
2022/02/28 09:22:34;;;;;;;12.13;7.25;;;5.30;98.40;;;-146.41;100.00;57768.22;4974510;28;20078;-66
2022/02/28 09:25:01;;;;;;;11.90;6.72;;;5.20;99.90;;;-146.41;100.00;57768.22;4979217;28;20137;-68
2022/02/28 09:27:28;;;;;;;12.27;6.78;;;5.00;99.80;;;-146.41;100.00;57768.22;4962689;28;20078;-67
2022/02/28 09:30:14;;;;;;;11.10;6.15;;;4.90;99.90;;;-146.41;100.00;57768.22;4960705;28;20258;-69
2022/02/28 09:32:41;;;;;;;13.52;6.57;;;4.90;99.90;;;-146.41;100.00;57768.22;4978764;28;20138;-68
2022/02/28 09:35:08;;;;;;;12.48;5.80;;;4.90;99.90;;;-146.41;100.00;57768.22;4978835;28;20079;-68
2022/02/28 09:37:35;;;;;;;12.73;7.13;;;4.90;99.90;;;-146.41;100.00;57768.22;4975689;28;20077;-68
2022/02/28 09:40:05;;;;;;;13.65;7.60;;;4.80;99.90;;;-146.41;100.00;57768.22;4975814;28;20480;-69
2022/02/28 09:42:33;;;;;;;11.55;6.72;;;4.90;99.90;;;-146.41;100.00;57768.22;4976736;28;20473;-68
2022/02/28 09:45:02;;;;;;;13.35;7.60;;;4.80;99.90;;;-146.41;100.00;57768.22;4965374;28;20047;-68
2022/02/28 09:47:32;;;;;;;12.98;7.20;;;4.80;99.90;;;-146.41;100.00;57768.22;4974871;28;20708;-68
2022/02/28 09:49:59;;;;;;;16.60;7.45;;;4.80;99.90;;;-146.41;100.00;57768.22;4979130;28;20073;-68
2022/02/28 09:52:30;;;;;;;12.73;6.93;;;4.70;99.90;;;-146.41;100.00;57768.22;4964451;28;20130;-68
2022/02/28 09:54:57;;;;;;;13.77;7.38;;;4.80;99.90;;;-146.41;100.00;57768.22;4966675;28;20606;-68
2022/02/28 09:57:24;;;;;;;12.30;6.65;;;4.80;99.90;;;-146.41;100.00;57768.22;4973027;28;20058;-68
2022/02/28 09:59:54;;;;;;;12.40;6.50;;;4.90;99.90;;;-146.41;100.00;57768.22;4972326;28;20054;-68
2022/02/28 10:02:22;;;;;;;11.23;6.57;;;4.90;99.90;;;-146.41;100.00;57768.22;4947220;28;20526;-68
2022/02/28 10:04:52;;;;;;;12.48;6.00;;;5.00;99.90;;;-146.41;100.00;57768.22;4980465;28;20046;-68
2022/02/28 10:07:26;;;;;;;9.10;5.47;;;5.10;99.90;;;-146.41;100.00;57768.22;4977067;28;20103;-68
2022/02/28 10:10:12;;;;;;;10.70;5.88;;;5.20;99.90;;;-146.41;100.00;57768.22;4979268;28;20112;-68
2022/02/28 10:12:40;;;;;;;8.40;4.63;;;5.40;99.90;;;-146.41;100.00;57768.22;4961880;28;20272;-68
2022/02/28 10:15:17;;;;;;;11.48;5.28;;;5.60;99.30;;;-146.41;100.00;57768.22;4980953;28;20062;-68
2022/02/28 10:17:59;;;;;;;10.32;4.68;;;5.60;98.40;;;-146.41;100.00;57768.22;4965583;28;20544;-68